Time;durP1;ratioP1;P1;durP2;ratioP2;P2;SDS_P1;SDS_P2;PMS_P1;PMS_P2;Temp;Humidity;BMP_temperature;BMP_pressure;BME280_temperature;BME280_humidity;BME280_pressure;Samples;Min_cycle;Max_cycle;Signal;HPM_P1;HPM_P2
2022/09/30 00:01:44;;;;;;;8.05;3.97;;;;;;;8.93;97.99;99789.91;4811097;29;20046;-89
2022/09/30 00:04:18;;;;;;;5.38;4.07;;;;;;;8.96;98.00;99783.47;4826653;29;20038;-89
2022/09/30 00:06:47;;;;;;;5.22;3.75;;;;;;;8.97;97.99;99785.13;4810034;29;20045;-89
2022/09/30 00:09:15;;;;;;;7.25;3.88;;;;;;;8.93;97.80;99776.72;4841526;29;20148;-89
2022/09/30 00:11:45;;;;;;;13.52;5.22;;;;;;;8.90;97.56;99772.56;4834362;29;20141;-89
2022/09/30 00:14:18;;;;;;;5.43;3.85;;;;;;;8.89;97.86;99759.53;4845548;29;20095;-89
2022/09/30 00:16:48;;;;;;;8.48;4.25;;;;;;;8.85;98.35;99758.19;4838579;29;20399;-87
2022/09/30 00:19:15;;;;;;;12.10;4.13;;;;;;;8.84;98.64;99753.91;4794120;29;20075;-89
2022/09/30 00:21:44;;;;;;;6.03;3.90;;;;;;;8.84;98.77;99751.25;4821782;29;20094;-90
2022/09/30 00:24:12;;;;;;;8.40;3.90;;;;;;;8.90;98.78;99737.47;4824104;29;20038;-89
2022/09/30 00:26:39;;;;;;;4.72;3.60;;;;;;;8.89;98.47;99743.72;4811139;29;20042;-88
2022/09/30 00:29:08;;;;;;;5.00;2.97;;;;;;;8.86;98.60;99736.09;4837737;29;20034;-89
2022/09/30 00:31:37;;;;;;;6.35;3.60;;;;;;;8.86;98.99;99730.84;4825640;29;20792;-89
2022/09/30 00:34:07;;;;;;;5.78;3.85;;;;;;;8.86;99.12;99717.66;4811577;29;20042;-89
2022/09/30 00:36:42;;;;;;;7.93;3.03;;;;;;;8.85;99.32;99713.38;4827483;29;20038;-89
2022/09/30 00:39:17;;;;;;;5.95;2.72;;;;;;;8.85;99.75;99700.22;4837869;29;20120;-88
2022/09/30 00:41:48;;;;;;;4.82;3.25;;;;;;;8.87;99.29;99698.25;4806275;29;20069;-89
2022/09/30 00:44:54;;;;;;;4.20;2.72;;;;;;;8.87;99.20;99704.34;4838970;29;20091;-89
2022/09/30 00:47:32;;;;;;;5.35;2.72;;;;;;;8.88;99.30;99695.47;4854098;29;20042;-88
2022/09/30 00:50:25;;;;;;;3.90;2.47;;;;;;;8.87;99.19;99677.97;4792918;29;20038;-89
2022/09/30 00:53:14;;;;;;;2.78;2.58;;;;;;;8.90;99.21;99675.03;4794468;29;20050;-88
2022/09/30 00:56:00;;;;;;;2.95;2.42;;;;;;;8.91;99.36;99655.63;4839412;29;20030;-88
2022/09/30 00:58:33;;;;;;;;;;;;;;;8.81;99.29;99658.34;4847273;29;20042;-88
2022/09/30 01:01:02;;;;;;;3.80;2.55;;;;;;;8.89;99.60;99651.47;4826838;29;20319;-88
2022/09/30 01:03:33;;;;;;;6.47;2.83;;;;;;;8.92;99.29;99630.91;4837194;29;20038;-88
2022/09/30 01:06:01;;;;;;;2.60;1.90;;;;;;;8.93;99.37;99637.03;4814272;29;20504;-88
2022/09/30 01:08:32;;;;;;;5.35;2.55;;;;;;;8.95;99.05;99657.97;4810291;29;20547;-89
2022/09/30 01:11:00;;;;;;;4.43;2.50;;;;;;;8.89;99.32;99659.38;4827411;29;20037;-89
2022/09/30 01:13:30;;;;;;;4.55;2.72;;;;;;;8.85;99.71;99661.50;4809511;29;20038;-89
2022/09/30 01:16:09;;;;;;;4.57;2.95;;;;;;;8.84;99.67;99665.09;4796601;29;20053;-89
2022/09/30 01:18:41;;;;;;;3.22;2.58;;;;;;;8.84;100.00;99665.09;4840031;29;20068;-88
2022/09/30 01:21:27;;;;;;;3.58;2.08;;;;;;;8.90;100.00;99651.31;4826871;29;20049;-88
2022/09/30 01:24:07;;;;;;;5.90;1.98;;;;;;;8.93;100.00;99651.00;4857425;29;20069;-89
2022/09/30 01:26:54;;;;;;;1.67;1.48;;;;;;;8.93;100.00;99627.28;4810048;29;20399;-88
2022/09/30 01:30:01;;;;;;;8.52;1.50;;;;;;;8.91;100.00;99631.06;4804464;29;20551;-88
2022/09/30 01:32:48;;;;;;;2.15;1.50;;;;;;;8.93;100.00;99622.03;4828418;29;20499;-89
2022/09/30 01:35:41;;;;;;;2.92;1.15;;;;;;;8.96;100.00;99612.16;4837293;29;20060;-89
2022/09/30 01:38:23;;;;;;;2.67;1.10;;;;;;;9.01;100.00;99602.00;4838424;29;20038;-89
2022/09/30 01:41:06;;;;;;;2.00;1.25;;;;;;;9.05;100.00;99598.06;4821606;29;20068;-89
2022/09/30 01:43:45;;;;;;;1.70;1.00;;;;;;;9.11;100.00;99599.25;4825454;29;20041;-89
2022/09/30 01:46:24;;;;;;;2.03;0.80;;;;;;;9.15;100.00;99595.31;4803610;29;20071;-89
2022/09/30 01:49:11;;;;;;;1.80;1.15;;;;;;;9.17;100.00;99580.97;4823752;29;20120;-81
2022/09/30 01:51:59;;;;;;;5.38;1.20;;;;;;;9.19;100.00;99572.91;4841288;29;20060;-80
2022/09/30 01:54:51;;;;;;;1.70;1.15;;;;;;;9.22;100.00;99558.59;4799352;29;20146;-89
2022/09/30 01:57:27;;;;;;;3.03;0.85;;;;;;;9.29;100.00;99560.44;4831468;29;20095;-89
2022/09/30 02:00:07;;;;;;;2.25;0.90;;;;;;;9.32;100.00;99561.13;4819951;29;20042;-89
2022/09/30 02:02:54;;;;;;;1.45;1.00;;;;;;;9.34;100.00;99562.63;4834512;29;20042;-89
2022/09/30 02:05:34;;;;;;;2.17;0.80;;;;;;;9.38;100.00;99558.66;4815895;29;20060;-89
2022/09/30 02:08:08;;;;;;;1.70;0.90;;;;;;;9.42;100.00;99551.28;4797693;29;20038;-89
2022/09/30 02:11:14;;;;;;;1.42;0.80;;;;;;;9.40;100.00;99532.13;4810612;29;20042;-88
2022/09/30 02:14:11;;;;;;;1.38;1.00;;;;;;;9.44;100.00;99520.28;4806278;29;20467;-89
2022/09/30 02:17:01;;;;;;;1.60;1.00;;;;;;;9.42;100.00;99527.53;4823686;29;20038;-90
2022/09/30 02:19:33;;;;;;;3.25;0.98;;;;;;;9.43;100.00;99522.09;4827366;29;20042;-89
2022/09/30 02:22:07;;;;;;;7.15;1.23;;;;;;;9.49;100.00;99519.81;4813027;29;20053;-89
2022/09/30 02:24:36;;;;;;;3.17;0.85;;;;;;;9.52;100.00;99511.56;4797482;29;20066;-89
2022/09/30 02:27:14;;;;;;;2.15;0.90;;;;;;;9.53;100.00;99506.13;4829960;29;20064;-89
2022/09/30 02:29:49;;;;;;;1.20;0.70;;;;;;;9.54;100.00;99502.50;4826845;29;20050;-89
2022/09/30 02:32:23;;;;;;;4.25;0.82;;;;;;;9.58;100.00;99481.06;4838661;29;20094;-90
2022/09/30 02:35:01;;;;;;;2.22;0.60;;;;;;;9.58;100.00;99474.00;4826517;29;20046;-88
2022/09/30 02:37:40;;;;;;;0.98;0.68;;;;;;;9.60;100.00;99477.31;4838560;29;20102;-88
2022/09/30 02:40:21;;;;;;;4.47;0.75;;;;;;;9.62;100.00;99466.59;4840974;29;20057;-88
2022/09/30 02:42:50;;;;;;;3.33;0.80;;;;;;;9.61;100.00;99443.81;4799508;29;20169;-88
2022/09/30 02:45:23;;;;;;;1.42;0.60;;;;;;;9.65;100.00;99442.53;4827532;29;20042;-88
2022/09/30 02:48:26;;;;;;;6.32;0.60;;;;;;;9.65;100.00;99430.13;4827340;29;20062;-88
2022/09/30 02:51:18;;;;;;;1.05;0.50;;;;;;;9.65;100.00;99421.41;4837840;29;20046;-89
2022/09/30 02:54:02;;;;;;;3.67;0.80;;;;;;;9.63;100.00;99418.94;4815659;29;20042;-89
2022/09/30 02:57:05;;;;;;;2.90;0.77;;;;;;;9.61;100.00;99401.59;4812135;29;20567;-89
2022/09/30 02:59:35;;;;;;;1.80;0.70;;;;;;;9.64;100.00;99396.00;4812655;29;20045;-89
2022/09/30 03:02:05;;;;;;;1.75;0.90;;;;;;;9.64;100.00;99396.84;4849289;29;20065;-91
2022/09/30 03:04:38;;;;;;;1.13;0.70;;;;;;;9.63;100.00;99394.38;4837453;29;20046;-90
2022/09/30 03:07:09;;;;;;;6.78;1.23;;;;;;;9.66;100.00;99391.38;4819466;29;20045;-90
2022/09/30 03:09:38;;;;;;;1.30;0.75;;;;;;;9.65;100.00;99393.19;4826246;29;20038;-89
2022/09/30 03:12:25;;;;;;;1.67;0.98;;;;;;;9.68;100.00;99378.88;4818705;29;20373;-88
2022/09/30 03:15:03;;;;;;;2.28;0.80;;;;;;;9.70;100.00;99376.06;4828739;29;20132;-87
2022/09/30 03:17:45;;;;;;;3.65;1.02;;;;;;;9.70;100.00;99366.31;4812646;29;20070;-88
2022/09/30 03:20:56;;;;;;;0.85;0.50;;;;;;;9.64;100.00;99362.53;4820952;29;20052;-88
2022/09/30 03:24:01;;;;;;;1.23;0.63;;;;;;;9.65;100.00;99360.72;4809957;29;20136;-88
2022/09/30 03:26:50;;;;;;;1.83;0.73;;;;;;;9.66;100.00;99355.28;4851863;29;20030;-89
2022/09/30 03:29:38;;;;;;;1.98;0.60;;;;;;;9.66;100.00;99347.38;4827673;29;20041;-88
2022/09/30 03:32:11;;;;;;;1.63;0.70;;;;;;;9.70;100.00;99334.66;4838764;29;20048;-89
2022/09/30 03:35:15;;;;;;;2.75;0.60;;;;;;;9.72;100.00;99326.56;4828089;29;20078;-88
2022/09/30 03:38:04;;;;;;;5.68;0.82;;;;;;;9.71;100.00;99327.56;4831578;29;20487;-90
2022/09/30 03:40:41;;;;;;;0.88;0.77;;;;;;;9.73;100.00;99323.75;4822049;29;20081;-88
2022/09/30 03:43:27;;;;;;;4.18;0.43;;;;;;;9.73;100.00;99323.75;4819612;29;20046;-87
2022/09/30 03:46:14;;;;;;;1.42;0.60;;;;;;;9.78;100.00;99308.25;4791687;29;20053;-88
2022/09/30 03:48:44;;;;;;;2.45;0.47;;;;;;;9.82;100.00;99313.19;4782148;29;20051;-88
2022/09/30 03:51:12;;;;;;;1.73;0.50;;;;;;;9.82;100.00;99303.47;4816251;29;20042;-89
2022/09/30 03:53:41;;;;;;;0.40;0.40;;;;;;;9.89;100.00;99293.09;4809890;29;20373;-90
2022/09/30 03:56:10;;;;;;;3.08;0.60;;;;;;;9.91;100.00;99275.25;4809665;29;20048;-90
2022/09/30 03:58:43;;;;;;;3.70;0.50;;;;;;;9.96;100.00;99270.28;4809171;29;20041;-91
2022/09/30 04:01:22;;;;;;;1.58;0.52;;;;;;;9.99;100.00;99261.19;4801890;29;20080;-89
2022/09/30 04:03:53;;;;;;;1.45;0.50;;;;;;;10.00;100.00;99252.31;4790674;29;20043;-89
2022/09/30 04:06:25;;;;;;;1.67;0.50;;;;;;;10.02;100.00;99255.56;4809098;29;20071;-89
2022/09/30 04:08:53;;;;;;;1.88;0.40;;;;;;;10.05;100.00;99240.22;4808501;29;20038;-89
2022/09/30 04:11:21;;;;;;;1.65;0.60;;;;;;;10.10;100.00;99233.59;4797607;29;20090;-88
2022/09/30 04:13:49;;;;;;;1.63;0.30;;;;;;;10.12;100.00;99221.88;4792959;29;20575;-88
2022/09/30 04:16:17;;;;;;;1.80;0.43;;;;;;;10.12;100.00;99221.06;4805848;29;20042;-88
2022/09/30 04:18:47;;;;;;;1.25;0.40;;;;;;;10.15;100.00;99215.44;4802543;29;20066;-89
2022/09/30 04:21:17;;;;;;;2.28;0.55;;;;;;;10.16;100.00;99206.53;4807942;29;20038;-87
2022/09/30 04:23:47;;;;;;;0.55;0.55;;;;;;;10.15;100.00;99199.59;4793899;29;20514;-89
2022/09/30 04:26:21;;;;;;;3.30;0.60;;;;;;;10.13;100.00;99191.03;4808104;29;20110;-88
2022/09/30 04:28:53;;;;;;;2.20;0.60;;;;;;;10.17;100.00;99181.75;4807508;29;20042;-89
2022/09/30 04:31:24;;;;;;;1.13;0.40;;;;;;;10.17;100.00;99179.97;4802791;29;20045;-87
2022/09/30 04:33:55;;;;;;;1.88;0.47;;;;;;;10.18;100.00;99159.63;4821172;29;21563;-86
2022/09/30 04:36:24;;;;;;;2.13;0.70;;;;;;;10.18;100.00;99144.63;4810728;29;20055;-89
2022/09/30 04:38:52;;;;;;;1.77;0.40;;;;;;;10.19;100.00;99134.91;4806752;29;20843;-86
2022/09/30 04:41:21;;;;;;;3.92;0.40;;;;;;;10.21;100.00;99122.31;4801459;29;20084;-89
2022/09/30 04:43:49;;;;;;;1.30;0.40;;;;;;;10.17;100.00;99105.19;4819447;29;20045;-89
2022/09/30 04:46:19;;;;;;;2.13;0.47;;;;;;;10.20;100.00;99106.66;4814583;29;20046;-88
2022/09/30 04:48:48;;;;;;;1.95;0.47;;;;;;;10.22;100.00;99109.94;4811336;29;20038;-89
2022/09/30 04:51:18;;;;;;;0.90;0.50;;;;;;;10.24;100.00;99100.03;4811753;29;20053;-89
2022/09/30 04:53:48;;;;;;;4.70;0.70;;;;;;;10.25;100.00;99093.75;4839955;29;20033;-88
2022/09/30 04:56:15;;;;;;;1.33;0.60;;;;;;;10.26;100.00;99082.19;4811334;29;20049;-86
2022/09/30 04:58:44;;;;;;;2.65;0.40;;;;;;;10.28;100.00;99070.47;4795805;29;20047;-88
2022/09/30 05:01:16;;;;;;;2.50;0.52;;;;;;;10.32;100.00;99068.25;4834485;29;20041;-89
2022/09/30 05:03:46;;;;;;;3.45;0.57;;;;;;;10.32;100.00;99056.91;4810125;29;20044;-88
2022/09/30 05:06:15;;;;;;;2.97;0.40;;;;;;;10.35;100.00;99054.72;4824396;29;20037;-89
2022/09/30 05:08:43;;;;;;;2.67;0.45;;;;;;;10.36;100.00;99031.75;4841368;29;20062;-88
2022/09/30 05:11:16;;;;;;;2.45;0.60;;;;;;;10.40;100.00;99033.88;4811070;29;20117;-87
2022/09/30 05:13:45;;;;;;;4.50;0.65;;;;;;;10.42;100.00;99007.28;4798478;29;20056;-89
2022/09/30 05:16:14;;;;;;;4.55;0.50;;;;;;;10.47;100.00;98991.75;4826169;29;20045;-89
2022/09/30 05:18:44;;;;;;;2.22;0.50;;;;;;;10.55;100.00;98969.72;4824900;29;20565;-89
2022/09/30 05:21:19;;;;;;;1.67;0.40;;;;;;;10.57;100.00;98940.47;4825679;29;20053;-89
2022/09/30 05:23:47;;;;;;;3.20;0.30;;;;;;;10.61;100.00;98925.88;4825469;29;20109;-88
2022/09/30 05:26:16;;;;;;;2.60;0.40;;;;;;;10.67;100.00;98904.03;4826257;29;20056;-89
2022/09/30 05:28:44;;;;;;;1.35;0.30;;;;;;;10.72;100.00;98904.28;4838981;29;20033;-89
2022/09/30 05:31:12;;;;;;;1.10;0.20;;;;;;;10.80;100.00;98913.94;4822418;29;20065;-88
2022/09/30 05:33:40;;;;;;;0.60;0.30;;;;;;;10.85;100.00;98927.44;4814858;29;20113;-88
2022/09/30 05:36:13;;;;;;;3.08;0.30;;;;;;;10.88;100.00;98939.44;4824544;29;20033;-87
2022/09/30 05:38:41;;;;;;;2.20;0.30;;;;;;;10.93;100.00;98934.44;4822300;29;20050;-87
2022/09/30 05:41:13;;;;;;;9.75;0.30;;;;;;;10.98;100.00;98931.25;4825567;29;20083;-88
2022/09/30 05:43:46;;;;;;;2.75;0.30;;;;;;;11.02;100.00;98916.66;4821512;29;20048;-89
2022/09/30 05:46:18;;;;;;;3.00;0.40;;;;;;;11.07;100.00;98897.59;4834846;29;20052;-88
2022/09/30 05:48:48;;;;;;;0.22;0.13;;;;;;;11.12;100.00;98885.44;4825935;29;20034;-89
2022/09/30 05:51:18;;;;;;;3.95;0.50;;;;;;;11.21;100.00;98872.13;4837251;29;20171;-88
2022/09/30 05:53:47;;;;;;;3.22;0.30;;;;;;;11.23;100.00;98855.03;4808887;29;20067;-86
2022/09/30 05:56:15;;;;;;;0.35;0.20;;;;;;;11.29;100.00;98859.59;4810687;29;20098;-89
2022/09/30 05:58:43;;;;;;;1.48;0.20;;;;;;;11.33;100.00;98853.91;4806844;29;20049;-89
2022/09/30 06:01:12;;;;;;;0.30;0.20;;;;;;;11.39;100.00;98863.75;4810243;29;20040;-89
2022/09/30 06:03:40;;;;;;;0.75;0.40;;;;;;;11.43;100.00;98872.13;4811421;29;20105;-89
2022/09/30 06:06:09;;;;;;;1.30;0.30;;;;;;;11.46;100.00;98858.50;4836327;29;20070;-90
2022/09/30 06:08:36;;;;;;;1.80;0.30;;;;;;;11.50;100.00;98843.88;4797240;29;20418;-89
2022/09/30 06:11:13;;;;;;;0.10;0.10;;;;;;;11.50;100.00;98823.56;4825393;29;20045;-90
2022/09/30 06:13:44;;;;;;;2.25;0.30;;;;;;;11.54;100.00;98808.94;4809252;29;20042;-90
2022/09/30 06:16:14;;;;;;;1.17;0.20;;;;;;;11.59;100.00;98802.25;4824843;29;20034;-89
2022/09/30 06:18:44;;;;;;;0.98;0.20;;;;;;;11.63;100.00;98801.69;4826266;29;20052;-91
2022/09/30 06:21:16;;;;;;;0.68;0.20;;;;;;;11.61;100.00;98787.81;4823619;29;20069;-89
2022/09/30 06:23:45;;;;;;;1.13;0.30;;;;;;;11.65;100.00;98777.66;4797136;29;20077;-85
2022/09/30 06:26:13;;;;;;;2.58;0.30;;;;;;;11.68;100.00;98779.94;4794576;29;20063;-85
2022/09/30 06:28:44;;;;;;;2.45;0.40;;;;;;;11.73;100.00;98764.28;4823829;29;20072;-87
2022/09/30 06:31:13;;;;;;;1.48;0.40;;;;;;;11.79;100.00;98776.75;4824632;29;20042;-90
2022/09/30 06:33:43;;;;;;;2.92;0.40;;;;;;;11.84;100.00;98759.44;4825119;29;20037;-89
2022/09/30 06:36:13;;;;;;;3.17;0.40;;;;;;;11.85;100.00;98750.53;4829937;29;20103;-89
2022/09/30 06:38:44;;;;;;;3.45;0.50;;;;;;;11.86;100.00;98731.78;4819413;29;20043;-89
2022/09/30 06:41:13;;;;;;;2.05;0.38;;;;;;;11.94;100.00;98714.09;4825810;29;21034;-89
2022/09/30 06:43:41;;;;;;;3.50;0.60;;;;;;;11.98;100.00;98712.69;4817420;29;20590;-88
2022/09/30 06:46:11;;;;;;;1.65;0.30;;;;;;;12.05;100.00;98721.50;4823904;29;20065;-89
2022/09/30 06:48:39;;;;;;;0.98;0.30;;;;;;;12.10;100.00;98700.56;4827557;29;20034;-88
2022/09/30 06:51:10;;;;;;;7.35;0.60;;;;;;;12.12;100.00;98710.97;4825650;29;20065;-87
2022/09/30 06:53:39;;;;;;;2.85;0.38;;;;;;;12.17;100.00;98692.63;4826273;29;20061;-88
2022/09/30 06:56:08;;;;;;;2.38;0.40;;;;;;;12.21;100.00;98691.25;4843861;29;20121;-90
2022/09/30 06:58:39;;;;;;;2.25;0.38;;;;;;;12.23;100.00;98685.75;4843188;29;20030;-89
2022/09/30 07:01:10;;;;;;;3.45;0.40;;;;;;;12.30;100.00;98693.69;4828847;29;20428;-89
2022/09/30 07:03:41;;;;;;;4.28;0.80;;;;;;;12.33;100.00;98685.34;4844746;29;20057;-89
2022/09/30 07:06:14;;;;;;;3.80;0.50;;;;;;;12.35;100.00;98656.81;4814230;29;20114;-89
2022/09/30 07:08:44;;;;;;;2.20;0.65;;;;;;;12.35;100.00;98630.34;4829642;29;20133;-89
2022/09/30 07:11:15;;;;;;;5.78;0.95;;;;;;;12.40;100.00;98612.00;4805988;29;20048;-89
2022/09/30 07:13:44;;;;;;;3.38;0.45;;;;;;;12.40;100.00;98606.72;4838789;29;20058;-89
2022/09/30 07:16:17;;;;;;;4.88;0.70;;;;;;;12.47;100.00;98610.16;4813709;29;20138;-89
2022/09/30 07:18:47;;;;;;;3.92;0.73;;;;;;;12.49;100.00;98607.31;4825863;29;20094;-89
2022/09/30 07:21:17;;;;;;;6.22;0.60;;;;;;;12.52;100.00;98614.84;4844657;29;20155;-88
2022/09/30 07:23:46;;;;;;;2.72;0.57;;;;;;;12.53;100.00;98598.75;4841493;29;20050;-89
2022/09/30 07:26:16;;;;;;;3.03;0.50;;;;;;;12.57;100.00;98564.72;4827669;29;20044;-88
2022/09/30 07:28:47;;;;;;;5.78;0.80;;;;;;;12.61;100.00;98563.28;4828937;29;20053;-89
2022/09/30 07:31:20;;;;;;;7.28;0.90;;;;;;;12.63;100.00;98557.78;4810519;29;20133;-88
2022/09/30 07:33:50;;;;;;;3.25;0.50;;;;;;;12.64;100.00;98564.72;4826852;29;20041;-89
2022/09/30 07:36:25;;;;;;;3.65;0.40;;;;;;;12.66;100.00;98560.03;4829370;29;20045;-89
2022/09/30 07:38:54;;;;;;;3.50;0.47;;;;;;;12.67;100.00;98551.06;4826429;29;20078;-88
2022/09/30 07:41:27;;;;;;;6.78;0.70;;;;;;;12.76;100.00;98543.69;4813781;29;20048;-87
2022/09/30 07:43:58;;;;;;;3.80;0.60;;;;;;;12.75;100.00;98532.31;4838138;29;20035;-83
2022/09/30 07:46:31;;;;;;;2.63;0.45;;;;;;;12.77;100.00;98534.75;4837345;29;20037;-83
2022/09/30 07:49:05;;;;;;;1.70;0.40;;;;;;;12.78;100.00;98531.06;4826107;29;20369;-89
2022/09/30 07:51:37;;;;;;;3.83;0.40;;;;;;;12.82;100.00;98515.56;4841752;29;20068;-88
2022/09/30 07:54:14;;;;;;;4.40;0.73;;;;;;;12.86;100.00;98508.81;4809143;29;20049;-88
2022/09/30 07:56:45;;;;;;;1.92;0.43;;;;;;;12.86;100.00;98493.75;4799607;29;20049;-88
2022/09/30 07:59:16;;;;;;;1.90;0.60;;;;;;;12.89;100.00;98505.75;4824495;29;20069;-90
2022/09/30 08:01:46;;;;;;;2.15;0.32;;;;;;;12.89;100.00;98495.97;4808600;29;20121;-88
2022/09/30 08:04:18;;;;;;;5.50;0.50;;;;;;;12.91;100.00;98477.19;4820069;29;20034;-89
2022/09/30 08:06:49;;;;;;;2.60;0.45;;;;;;;12.94;100.00;98465.34;4816547;29;20069;-89
2022/09/30 08:09:19;;;;;;;2.72;0.50;;;;;;;12.94;100.00;98460.88;4825373;29;20483;-88
2022/09/30 08:11:47;;;;;;;2.70;0.40;;;;;;;13.02;100.00;98459.81;4827543;29;20124;-89
2022/09/30 08:14:17;;;;;;;1.77;0.32;;;;;;;13.02;100.00;98471.25;4813061;29;20128;-86
2022/09/30 08:16:47;;;;;;;3.03;0.30;;;;;;;13.07;100.00;98454.72;4824736;29;20519;-88
2022/09/30 08:19:19;;;;;;;5.75;0.40;;;;;;;13.08;100.00;98453.69;4819398;29;20030;-87
2022/09/30 08:21:47;;;;;;;1.00;0.35;;;;;;;13.11;100.00;98436.53;4815420;29;20104;-90
2022/09/30 08:24:15;;;;;;;1.95;0.30;;;;;;;13.15;100.00;98424.47;4812445;29;20037;-89
2022/09/30 08:26:43;;;;;;;0.70;0.35;;;;;;;13.17;100.00;98427.72;4818121;29;20050;-87
2022/09/30 08:29:13;;;;;;;1.90;0.50;;;;;;;13.21;100.00;98386.50;4836858;29;20049;-89
2022/09/30 08:31:42;;;;;;;4.65;0.32;;;;;;;13.21;100.00;98370.59;4802097;29;20038;-89
2022/09/30 08:34:10;;;;;;;3.20;0.28;;;;;;;13.25;100.00;98365.66;4811556;29;20052;-90
2022/09/30 08:36:38;;;;;;;2.80;0.30;;;;;;;13.27;100.00;98366.25;4840613;29;20062;-89
2022/09/30 08:39:09;;;;;;;1.55;0.20;;;;;;;13.29;100.00;98366.84;4810391;29;20058;-88
2022/09/30 08:41:39;;;;;;;1.50;0.30;;;;;;;13.33;100.00;98328.25;4813247;29;20452;-89
2022/09/30 08:44:15;;;;;;;1.67;0.13;;;;;;;13.36;100.00;98317.19;4811135;29;20042;-87
2022/09/30 08:47:24;;;;;;;2.25;0.28;;;;;;;13.38;100.00;98291.28;4825518;29;20070;-89
2022/09/30 08:50:15;;;;;;;1.40;0.30;;;;;;;13.42;100.00;98298.81;4823599;29;20137;-89
2022/09/30 08:52:51;;;;;;;1.02;0.10;;;;;;;13.45;100.00;98285.94;4824583;29;20042;-89
2022/09/30 08:55:26;;;;;;;0.10;0.10;;;;;;;13.48;100.00;98284.66;4826077;29;20042;-89
2022/09/30 08:57:57;;;;;;;0.10;0.10;;;;;;;13.53;100.00;98279.56;4823507;29;20473;-89
2022/09/30 09:00:27;;;;;;;0.57;0.10;;;;;;;13.56;100.00;98283.59;4824174;29;20065;-89
2022/09/30 09:02:59;;;;;;;0.73;0.20;;;;;;;13.60;100.00;98306.84;4813240;29;20496;-88
2022/09/30 09:05:51;;;;;;;0.47;0.13;;;;;;;13.64;100.00;98316.00;4836584;29;20038;-88
2022/09/30 09:08:56;;;;;;;1.05;0.20;;;;;;;13.69;100.00;98301.25;4836863;29;20112;-87
2022/09/30 09:11:31;;;;;;;1.83;0.28;;;;;;;13.72;100.00;98303.47;4773854;29;20039;-89
2022/09/30 09:14:09;;;;;;;2.05;0.17;;;;;;;13.75;100.00;98303.88;4798123;29;20056;-88
2022/09/30 09:17:05;;;;;;;1.77;0.20;;;;;;;13.81;100.00;98312.78;4817199;29;20038;-86
2022/09/30 09:19:47;;;;;;;3.92;0.55;;;;;;;13.83;100.00;98312.56;4822045;29;20040;-87
2022/09/30 09:22:16;;;;;;;0.73;0.13;;;;;;;13.88;100.00;98312.75;4825610;29;20355;-89
2022/09/30 09:24:49;;;;;;;0.93;0.10;;;;;;;13.89;100.00;98317.84;4795388;29;20041;-87
2022/09/30 09:27:25;;;;;;;1.58;0.35;;;;;;;13.94;100.00;98313.69;4823127;29;20404;-89
2022/09/30 09:30:06;;;;;;;1.63;0.20;;;;;;;13.93;100.00;98291.66;4823992;29;20495;-84
2022/09/30 09:32:36;;;;;;;2.38;0.20;;;;;;;13.98;100.00;98298.97;4819962;29;20061;-84
2022/09/30 09:35:27;;;;;;;0.28;0.17;;;;;;;13.99;100.00;98293.44;4808965;29;20038;-91
2022/09/30 09:40:55;;;;;;;0.80;0.60;;;;;;;14.06;100.00;98277.44;4800450;29;20038;-90
2022/09/30 09:44:02;;;;;;;1.15;0.20;;;;;;;14.10;100.00;98280.44;4805427;29;20047;-90
2022/09/30 09:46:37;;;;;;;1.08;0.20;;;;;;;14.15;100.00;98285.91;4793028;29;20132;-91
2022/09/30 09:49:19;;;;;;;0.47;0.10;;;;;;;14.20;100.00;98278.09;4794196;29;20125;-90
2022/09/30 09:51:57;;;;;;;2.15;0.20;;;;;;;14.24;100.00;98289.06;4785612;29;20043;-90
2022/09/30 09:54:29;;;;;;;0.57;0.10;;;;;;;14.29;100.00;98256.50;4806291;29;20046;-91
2022/09/30 09:57:09;;;;;;;2.17;0.20;;;;;;;14.30;100.00;98266.91;4806233;29;20045;-91
2022/09/30 10:03:28;;;;;;;4.20;0.20;;;;;;;14.36;100.00;98233.34;4765312;30;20383;-91
2022/09/30 10:06:11;;;;;;;0.40;0.20;;;;;;;14.39;100.00;98235.56;4786039;29;20042;-90
2022/09/30 10:08:55;;;;;;;1.05;0.10;;;;;;;14.41;100.00;98245.97;4780722;29;20069;-88
2022/09/30 10:11:26;;;;;;;0.68;0.10;;;;;;;14.42;100.00;98243.06;4773951;29;20045;-91
2022/09/30 10:14:00;;;;;;;1.15;0.10;;;;;;;14.48;100.00;98218.25;4808522;29;20445;-90
2022/09/30 10:16:36;;;;;;;2.13;0.40;;;;;;;14.51;100.00;98217.81;4794200;29;20035;-87
2022/09/30 10:19:26;;;;;;;;;;;;;;;14.46;100.00;98216.88;4792827;29;20038;-90
2022/09/30 10:22:16;;;;;;;0.28;0.13;;;;;;;14.57;100.00;98209.97;4791666;29;19923;-90
2022/09/30 10:24:43;;;;;;;0.70;0.10;;;;;;;14.59;100.00;98224.66;4796970;29;20082;-90
2022/09/30 10:27:33;;;;;;;0.50;0.10;;;;;;;14.61;100.00;98217.25;4797286;29;20046;-89
2022/09/30 10:30:01;;;;;;;0.82;0.10;;;;;;;14.64;100.00;98208.03;4810900;29;20030;-89
2022/09/30 10:32:31;;;;;;;2.10;0.20;;;;;;;14.71;100.00;98210.59;4781598;29;20045;-90
2022/09/30 10:35:06;;;;;;;0.30;0.10;;;;;;;14.74;100.00;98215.44;4783859;29;20086;-88
2022/09/30 10:37:35;;;;;;;1.05;0.10;;;;;;;14.78;100.00;98211.28;4797046;29;20045;-90
2022/09/30 10:40:07;;;;;;;0.57;0.10;;;;;;;14.84;100.00;98210.41;4793979;29;20046;-90
2022/09/30 10:42:40;;;;;;;0.10;0.00;;;;;;;14.88;100.00;98205.44;4828679;29;20057;-91
2022/09/30 10:45:20;;;;;;;0.57;0.10;;;;;;;14.95;100.00;98205.34;4811580;29;20037;-90
2022/09/30 10:47:54;;;;;;;0.70;0.10;;;;;;;14.99;100.00;98193.22;4829616;29;20049;-89
2022/09/30 10:50:26;;;;;;;0.10;0.00;;;;;;;15.02;100.00;98194.63;4829299;29;20041;-90
2022/09/30 10:52:59;;;;;;;0.32;0.00;;;;;;;15.07;100.00;98178.75;4828508;29;20042;-89
2022/09/30 10:55:35;;;;;;;0.10;0.10;;;;;;;15.11;100.00;98180.72;4844010;29;20038;-88
2022/09/30 10:58:28;;;;;;;0.80;0.05;;;;;;;15.11;100.00;98177.28;4828153;29;20144;-88
2022/09/30 11:01:12;;;;;;;0.10;0.00;;;;;;;15.15;100.00;98190.91;4813904;29;20050;-91
2022/09/30 11:04:17;;;;;;;0.32;0.20;;;;;;;15.12;100.00;98177.03;4842162;29;20043;-89
2022/09/30 11:06:51;;;;;;;2.17;0.05;;;;;;;15.12;100.00;98181.53;4819254;29;20510;-91
2022/09/30 11:09:35;;;;;;;3.50;1.77;;;;;;;15.11;100.00;98172.75;4837189;29;20175;-90
2022/09/30 11:12:16;;;;;;;1.42;1.30;;;;;;;15.13;100.00;98164.53;4812719;29;20483;-91
2022/09/30 11:15:08;;;;;;;5.90;4.70;;;;;;;15.13;100.00;98173.34;4812580;29;20041;-90
2022/09/30 11:18:01;;;;;;;5.45;4.55;;;;;;;15.11;100.00;98167.41;4808237;29;20038;-90
2022/09/30 11:20:48;;;;;;;0.45;0.20;;;;;;;15.12;100.00;98173.56;4810436;29;20044;-89
2022/09/30 11:23:20;;;;;;;;;;;;;;;15.03;100.00;98167.78;4828062;29;20046;-91
2022/09/30 11:25:51;;;;;;;0.85;0.85;;;;;;;15.11;100.00;98177.28;4827749;29;19943;-88
2022/09/30 11:28:51;;;;;;;1.38;0.40;;;;;;;15.14;100.00;98171.50;4841376;29;20042;-89
2022/09/30 11:31:27;;;;;;;3.45;1.02;;;;;;;15.20;100.00;98177.72;4813303;29;20125;-90
2022/09/30 11:34:12;;;;;;;1.48;1.20;;;;;;;15.21;100.00;98171.38;4840719;29;20046;-89
2022/09/30 11:36:57;;;;;;;0.75;0.20;;;;;;;15.28;100.00;98181.91;4829995;29;20415;-90
2022/09/30 11:39:45;;;;;;;0.68;0.25;;;;;;;15.31;100.00;98152.97;4829447;29;20091;-90
2022/09/30 11:42:31;;;;;;;2.47;0.28;;;;;;;15.35;100.00;98156.78;4827607;29;20046;-87
2022/09/30 11:45:25;;;;;;;1.38;0.30;;;;;;;15.41;100.00;98167.53;4809324;29;20070;-89
2022/09/30 11:48:24;;;;;;;2.55;0.55;;;;;;;15.40;100.00;98197.88;4810932;29;20067;-89
2022/09/30 11:50:56;;;;;;;3.55;0.30;;;;;;;15.31;100.00;98224.00;4825890;29;20065;-91
2022/09/30 11:53:45;;;;;;;0.93;0.30;;;;;;;15.33;100.00;98235.25;4827319;29;20038;-89
2022/09/30 11:56:53;;;;;;;5.18;0.40;;;;;;;15.30;100.00;98241.03;4827381;29;20522;-90
2022/09/30 11:59:28;;;;;;;2.15;0.50;;;;;;;15.28;100.00;98240.44;4810276;29;20054;-89
2022/09/30 12:02:03;;;;;;;5.38;0.80;;;;;;;15.27;100.00;98254.81;4830459;29;20046;-90
2022/09/30 12:04:42;;;;;;;8.52;1.10;;;;;;;15.13;100.00;98262.97;4811901;29;20045;-89
2022/09/30 12:07:20;;;;;;;7.60;1.48;;;;;;;15.03;100.00;98270.72;4799154;29;20166;-89
2022/09/30 12:09:53;;;;;;;8.75;1.67;;;;;;;14.99;100.00;98259.72;4825098;29;20129;-90
2022/09/30 12:12:23;;;;;;;12.63;1.90;;;;;;;14.96;100.00;98268.97;4827180;29;20425;-90
2022/09/30 12:15:06;;;;;;;21.15;2.72;;;;;;;14.94;100.00;98278.22;4797195;29;20041;-89
2022/09/30 12:17:47;;;;;;;13.07;2.42;;;;;;;14.95;100.00;98264.69;4827252;29;20170;-88